Corinthiakos — A8UL2 — position and weather

sailwx.info

Track history (hours):
 
Tides and Currents Weather Stations Pressure Air Temp Water Temp Dewpoint Dewpoint Depression Visibility Wind Speed Wind Dir Waves Ship Positions

Corinthiakos

Last reported at 2017-Feb-19 14:28 UTC. Time now 2017-Feb-19 14:42 UTC.
Position N 01°16' E 103°47'.

Length 262 m; draft 10.2 m.

Type: Cargo ship. MMSI: 636014516.

Date/timePositionNaut miles runAvg speedWind from/ knotsBaromVisibWave heightAir tempDewpointWater temp
2017-Feb-19 14:28N 01°16' E 103°47'0 0.0
2017-Feb-19 13:33N 01°16' E 103°47'0 0.0
2017-Feb-19 12:30N 01°16' E 103°47'0 0.0
2017-Feb-19 11:34N 01°16' E 103°47'3 3.1
2017-Feb-19 10:33N 01°13' E 103°48'1111.1
2017-Feb-19 09:33N 01°15' E 103°59'4314.4
2017-Feb-19 06:33N 01°37' E 104°36'  
2017-Feb-15 00:33N 22°19' E 114°07'318 7.4
2017-Feb-13 05:34N 22°29' E 119°51'1312.9
2017-Feb-13 04:33N 22°31' E 120°04'1212.5
2017-Feb-13 03:34N 22°33' E 120°18'2 1.7
2017-Feb-13 02:32N 22°35' E 120°18'0 0.0
2017-Feb-13 01:32N 22°35' E 120°18'0 0.0
2017-Feb-13 00:29N 22°35' E 120°18'0 0.0
2017-Feb-12 23:31N 22°35' E 120°18'0 0.0
2017-Feb-12 22:32N 22°35' E 120°18'0 0.0
2017-Feb-12 21:28N 22°35' E 120°18'0 0.0
2017-Feb-12 20:32N 22°35' E 120°18'0 0.0
2017-Feb-12 19:34N 22°35' E 120°18'0 0.0
2017-Feb-12 18:33N 22°35' E 120°18'0 0.0
2017-Feb-12 17:32N 22°35' E 120°18'0 0.0
2017-Feb-12 16:32N 22°35' E 120°18'0 0.0
2017-Feb-12 15:32N 22°35' E 120°18'0 0.0
2017-Feb-12 14:32N 22°35' E 120°18'0 0.0
2017-Feb-12 13:32N 22°35' E 120°18'0 0.1
2017-Feb-12 12:32N 22°35' E 120°18'0 0.1
2017-Feb-12 11:32N 22°35' E 120°18'0 0.0
2017-Feb-12 10:26N 22°35' E 120°18'0 0.1
2017-Feb-12 09:32N 22°35' E 120°18'0 0.0
2017-Feb-12 08:32N 22°35' E 120°18'0 0.1
2017-Feb-12 07:32N 22°35' E 120°18'0 0.0
2017-Feb-12 06:29N 22°35' E 120°18'0 0.0
2017-Feb-12 05:32N 22°35' E 120°18'0 0.0
2017-Feb-12 04:32N 22°35' E 120°18'0 0.0
2017-Feb-12 03:32N 22°35' E 120°18'0 0.0
2017-Feb-12 02:29N 22°35' E 120°18'0 0.5
2017-Feb-12 01:34N 22°34' E 120°19'4 4.3
2017-Feb-12 00:33N 22°32' E 120°14'4 4.4
2017-Feb-11 23:33N 22°31' E 120°10'4 3.7
2017-Feb-11 22:34N 22°30' E 120°06'1312.9
2017-Feb-11 21:33N 22°27' E 119°52'  
Track history (hours):
 
Tides and Currents Weather Stations Pressure Air Temp Water Temp Dewpoint Dewpoint Depression Visibility Wind Speed Wind Dir Waves Ship Positions

Corinthiakos

Last reported at 2017-Feb-19 14:28 UTC. Time now 2017-Feb-19 14:42 UTC.
Position N 01°16' E 103°47'.

Length 262 m; draft 10.2 m.

Type: Cargo ship. MMSI: 636014516.

Date/timePositionNaut miles runAvg speedWind from/ knotsBaromVisibWave heightAir tempDewpointWater temp
2017-Feb-19 14:28N 01°16' E 103°47'0 0.0
2017-Feb-19 13:33N 01°16' E 103°47'0 0.0
2017-Feb-19 12:30N 01°16' E 103°47'0 0.0
2017-Feb-19 11:34N 01°16' E 103°47'3 3.1
2017-Feb-19 10:33N 01°13' E 103°48'1111.1
2017-Feb-19 09:33N 01°15' E 103°59'4314.4
2017-Feb-19 06:33N 01°37' E 104°36'  
2017-Feb-15 00:33N 22°19' E 114°07'318 7.4
2017-Feb-13 05:34N 22°29' E 119°51'1312.9
2017-Feb-13 04:33N 22°31' E 120°04'1212.5
2017-Feb-13 03:34N 22°33' E 120°18'2 1.7
2017-Feb-13 02:32N 22°35' E 120°18'0 0.0
2017-Feb-13 01:32N 22°35' E 120°18'0 0.0
2017-Feb-13 00:29N 22°35' E 120°18'0 0.0
2017-Feb-12 23:31N 22°35' E 120°18'0 0.0
2017-Feb-12 22:32N 22°35' E 120°18'0 0.0
2017-Feb-12 21:28N 22°35' E 120°18'0 0.0
2017-Feb-12 20:32N 22°35' E 120°18'0 0.0
2017-Feb-12 19:34N 22°35' E 120°18'0 0.0
2017-Feb-12 18:33N 22°35' E 120°18'0 0.0
2017-Feb-12 17:32N 22°35' E 120°18'0 0.0
2017-Feb-12 16:32N 22°35' E 120°18'0 0.0
2017-Feb-12 15:32N 22°35' E 120°18'0 0.0
2017-Feb-12 14:32N 22°35' E 120°18'0 0.0
2017-Feb-12 13:32N 22°35' E 120°18'0 0.1
2017-Feb-12 12:32N 22°35' E 120°18'0 0.1
2017-Feb-12 11:32N 22°35' E 120°18'0 0.0
2017-Feb-12 10:26N 22°35' E 120°18'0 0.1
2017-Feb-12 09:32N 22°35' E 120°18'0 0.0
2017-Feb-12 08:32N 22°35' E 120°18'0 0.1
2017-Feb-12 07:32N 22°35' E 120°18'0 0.0
2017-Feb-12 06:29N 22°35' E 120°18'0 0.0
2017-Feb-12 05:32N 22°35' E 120°18'0 0.0
2017-Feb-12 04:32N 22°35' E 120°18'0 0.0
2017-Feb-12 03:32N 22°35' E 120°18'0 0.0
2017-Feb-12 02:29N 22°35' E 120°18'0 0.5
2017-Feb-12 01:34N 22°34' E 120°19'4 4.3
2017-Feb-12 00:33N 22°32' E 120°14'4 4.4
2017-Feb-11 23:33N 22°31' E 120°10'4 3.7
2017-Feb-11 22:34N 22°30' E 120°06'1312.9
2017-Feb-11 21:33N 22°27' E 119°52'  

Dump ship's entire track history